sensor_id;sensor_type;location;lat;lon;timestamp;pressure;altitude;pressure_sealevel;temperature;humidity
40460;BME280;26164;51.138;16.952;2024-03-02T00:00:37;74327.25;;;-146.39;42.74
40460;BME280;26164;51.138;16.952;2024-03-02T00:03:19;74172.19;;;-146.39;41.04
40460;BME280;26164;51.138;16.952;2024-03-02T00:06:35;74268.09;;;-146.39;41.81
40460;BME280;26164;51.138;16.952;2024-03-02T00:10:25;74231.38;;;-146.39;41.45
40460;BME280;26164;51.138;16.952;2024-03-02T00:13:12;74135.47;;;-146.39;40.75
40460;BME280;26164;51.138;16.952;2024-03-02T00:15:56;74237.47;;;-146.39;41.48
40460;BME280;26164;51.138;16.952;2024-03-02T00:18:39;74274.22;;;-146.39;42.42
40460;BME280;26164;51.138;16.952;2024-03-02T00:21:34;74194.63;;;-146.39;41.53
40460;BME280;26164;51.138;16.952;2024-03-02T00:24:34;74135.47;;;-146.39;39.74
40460;BME280;26164;51.138;16.952;2024-03-02T00:27:06;74213.00;;;-146.39;41.36
40460;BME280;26164;51.138;16.952;2024-03-02T00:29:37;74127.31;;;-146.39;39.71
40460;BME280;26164;51.138;16.952;2024-03-02T00:32:18;74208.91;;;-146.39;40.32
40460;BME280;26164;51.138;16.952;2024-03-02T00:35:04;74204.84;;;-146.39;40.90
40460;BME280;26164;51.138;16.952;2024-03-02T00:37:46;74217.09;;;-146.39;40.85
40460;BME280;26164;51.138;16.952;2024-03-02T00:40:12;74272.16;;;-146.39;41.13
40460;BME280;26164;51.138;16.952;2024-03-02T00:42:44;74376.22;;;-146.39;43.24
40460;BME280;26164;51.138;16.952;2024-03-02T00:45:22;74319.09;;;-146.39;43.01
40460;BME280;26164;51.138;16.952;2024-03-02T00:47:53;74174.22;;;-146.39;41.30
40460;BME280;26164;51.138;16.952;2024-03-02T00:50:20;74261.97;;;-146.39;41.38
40460;BME280;26164;51.138;16.952;2024-03-02T00:53:35;74237.47;;;-146.39;41.95
40460;BME280;26164;51.138;16.952;2024-03-02T00:56:18;74441.53;;;-146.39;44.30
40460;BME280;26164;51.138;16.952;2024-03-02T00:58:50;74294.63;;;-146.39;42.46
40460;BME280;26164;51.138;16.952;2024-03-02T01:01:32;74363.97;;;-146.39;43.96
40460;BME280;26164;51.138;16.952;2024-03-02T01:04:18;74233.41;;;-146.39;41.95
40460;BME280;26164;51.138;16.952;2024-03-02T01:07:01;74274.22;;;-146.39;42.43
40460;BME280;26164;51.138;16.952;2024-03-02T01:10:23;74188.50;;;-146.39;41.32
40460;BME280;26164;51.138;16.952;2024-03-02T01:16:41;74162.00;;;-146.39;40.81
40460;BME280;26164;51.138;16.952;2024-03-02T01:19:48;74164.03;;;-146.39;40.76
40460;BME280;26164;51.138;16.952;2024-03-02T01:22:55;74137.50;;;-146.39;40.33
40460;BME280;26164;51.138;16.952;2024-03-02T01:25:23;74143.63;;;-146.39;40.02
40460;BME280;26164;51.138;16.952;2024-03-02T01:27:52;74270.13;;;-146.39;40.66
40460;BME280;26164;51.138;16.952;2024-03-02T01:30:21;74111.00;;;-146.39;39.56
40460;BME280;26164;51.138;16.952;2024-03-02T01:38:56;74315.00;;;-146.39;42.21
40460;BME280;26164;51.138;16.952;2024-03-02T01:41:44;74368.06;;;-146.39;42.88
40460;BME280;26164;51.138;16.952;2024-03-02T01:44:35;74445.59;;;-146.39;44.37
40460;BME280;26164;51.138;16.952;2024-03-02T01:47:24;74404.78;;;-146.39;43.64
40460;BME280;26164;51.138;16.952;2024-03-02T01:50:05;74343.59;;;-146.39;43.07
40460;BME280;26164;51.138;16.952;2024-03-02T01:52:52;74368.06;;;-146.39;43.50
40460;BME280;26164;51.138;16.952;2024-03-02T01:55:30;74219.13;;;-146.39;41.53
40460;BME280;26164;51.138;16.952;2024-03-02T01:58:02;74443.56;;;-146.39;44.34
40460;BME280;26164;51.138;16.952;2024-03-02T02:00:34;74333.38;;;-146.39;43.26
40460;BME280;26164;51.138;16.952;2024-03-02T02:03:01;74388.47;;;-146.39;44.22
40460;BME280;26164;51.138;16.952;2024-03-02T02:09:33;74319.09;;;-146.39;43.24
40460;BME280;26164;51.138;16.952;2024-03-02T02:12:39;74480.28;;;-146.39;44.46
40460;BME280;26164;51.138;16.952;2024-03-02T02:15:33;74449.69;;;-146.39;45.27
40460;BME280;26164;51.138;16.952;2024-03-02T02:18:10;74421.13;;;-146.39;44.41
40460;BME280;26164;51.138;16.952;2024-03-02T02:20:38;74417.03;;;-146.39;44.52
40460;BME280;26164;51.138;16.952;2024-03-02T02:23:05;74415.00;;;-146.39;44.60
40460;BME280;26164;51.138;16.952;2024-03-02T02:25:33;74572.09;;;-146.39;46.82
40460;BME280;26164;51.138;16.952;2024-03-02T02:28:01;74502.72;;;-146.39;46.01
40460;BME280;26164;51.138;16.952;2024-03-02T02:30:30;74390.50;;;-146.39;45.07
40460;BME280;26164;51.138;16.952;2024-03-02T02:32:58;74388.47;;;-146.39;44.97
40460;BME280;26164;51.138;16.952;2024-03-02T02:35:24;74474.16;;;-146.39;44.92
40460;BME280;26164;51.138;16.952;2024-03-02T02:37:56;74427.25;;;-146.39;46.16
40460;BME280;26164;51.138;16.952;2024-03-02T02:40:23;74390.50;;;-146.39;44.36
40460;BME280;26164;51.138;16.952;2024-03-02T02:43:04;74519.06;;;-146.39;45.44
40460;BME280;26164;51.138;16.952;2024-03-02T02:45:45;74541.50;;;-146.39;46.04
40460;BME280;26164;51.138;16.952;2024-03-02T02:48:12;74494.56;;;-146.39;45.90
40460;BME280;26164;51.138;16.952;2024-03-02T02:50:38;74551.72;;;-146.39;47.41
40460;BME280;26164;51.138;16.952;2024-03-02T02:53:19;74523.13;;;-146.39;46.59
40460;BME280;26164;51.138;16.952;2024-03-02T02:55:45;74482.34;;;-146.39;45.80
40460;BME280;26164;51.138;16.952;2024-03-02T02:58:12;74568.03;;;-146.39;47.34
40460;BME280;26164;51.138;16.952;2024-03-02T03:00:39;74445.59;;;-146.39;45.19
40460;BME280;26164;51.138;16.952;2024-03-02T03:03:29;74449.69;;;-146.39;45.11
40460;BME280;26164;51.138;16.952;2024-03-02T03:06:15;74359.91;;;-146.39;43.10
40460;BME280;26164;51.138;16.952;2024-03-02T03:09:01;74445.59;;;-146.39;43.72
40460;BME280;26164;51.138;16.952;2024-03-02T03:11:44;74412.97;;;-146.39;43.50
40460;BME280;26164;51.138;16.952;2024-03-02T03:14:16;74531.31;;;-146.39;44.57
40460;BME280;26164;51.138;16.952;2024-03-02T03:17:00;74633.31;;;-146.39;47.43
40460;BME280;26164;51.138;16.952;2024-03-02T03:20:09;74433.34;;;-146.39;44.32
40460;BME280;26164;51.138;16.952;2024-03-02T03:22:54;74441.53;;;-146.39;44.86
40460;BME280;26164;51.138;16.952;2024-03-02T03:26:03;74443.56;;;-146.39;44.48
40460;BME280;26164;51.138;16.952;2024-03-02T03:28:30;74490.50;;;-146.39;45.18
40460;BME280;26164;51.138;16.952;2024-03-02T03:30:55;74604.75;;;-146.39;47.03
40460;BME280;26164;51.138;16.952;2024-03-02T03:33:22;74421.13;;;-146.39;44.37
40460;BME280;26164;51.138;16.952;2024-03-02T03:35:48;74494.56;;;-146.39;45.54
40460;BME280;26164;51.138;16.952;2024-03-02T03:38:14;74568.03;;;-146.39;46.00
40460;BME280;26164;51.138;16.952;2024-03-02T03:40:40;74425.19;;;-146.39;43.99
40460;BME280;26164;51.138;16.952;2024-03-02T03:43:06;74417.03;;;-146.39;44.34
40460;BME280;26164;51.138;16.952;2024-03-02T03:45:31;74441.53;;;-146.39;43.85
40460;BME280;26164;51.138;16.952;2024-03-02T03:47:59;74572.09;;;-146.39;45.29
40460;BME280;26164;51.138;16.952;2024-03-02T03:50:24;74361.94;;;-146.39;43.39
40460;BME280;26164;51.138;16.952;2024-03-02T03:52:50;74308.91;;;-146.39;42.48
40460;BME280;26164;51.138;16.952;2024-03-02T03:55:16;74327.25;;;-146.39;41.98
40460;BME280;26164;51.138;16.952;2024-03-02T03:57:42;74580.28;;;-146.39;45.61
40460;BME280;26164;51.138;16.952;2024-03-02T04:00:09;74596.59;;;-146.39;46.89
40460;BME280;26164;51.138;16.952;2024-03-02T04:02:39;74457.84;;;-146.39;44.31
40460;BME280;26164;51.138;16.952;2024-03-02T04:05:07;74494.56;;;-146.39;45.60
40460;BME280;26164;51.138;16.952;2024-03-02T04:07:35;74539.47;;;-146.39;46.32
40460;BME280;26164;51.138;16.952;2024-03-02T04:10:09;74472.13;;;-146.39;44.60
40460;BME280;26164;51.138;16.952;2024-03-02T04:12:37;74394.59;;;-146.39;43.05
40460;BME280;26164;51.138;16.952;2024-03-02T04:15:04;74445.59;;;-146.39;44.40
40460;BME280;26164;51.138;16.952;2024-03-02T04:17:33;74412.97;;;-146.39;43.09
40460;BME280;26164;51.138;16.952;2024-03-02T04:19:59;74547.63;;;-146.39;45.47
40460;BME280;26164;51.138;16.952;2024-03-02T04:22:27;74559.88;;;-146.39;46.10
40460;BME280;26164;51.138;16.952;2024-03-02T04:24:52;74476.22;;;-146.39;43.82
40460;BME280;26164;51.138;16.952;2024-03-02T04:27:19;74547.63;;;-146.39;45.47
40460;BME280;26164;51.138;16.952;2024-03-02T04:29:44;74621.09;;;-146.39;46.11
40460;BME280;26164;51.138;16.952;2024-03-02T04:32:10;74490.50;;;-146.39;44.34
40460;BME280;26164;51.138;16.952;2024-03-02T04:34:37;74449.69;;;-146.39;43.61
40460;BME280;26164;51.138;16.952;2024-03-02T04:37:02;74498.66;;;-146.39;44.16
40460;BME280;26164;51.138;16.952;2024-03-02T04:39:28;74604.75;;;-146.39;45.87
40460;BME280;26164;51.138;16.952;2024-03-02T04:41:54;74604.75;;;-146.39;45.30
40460;BME280;26164;51.138;16.952;2024-03-02T04:44:20;74547.63;;;-146.39;45.03
40460;BME280;26164;51.138;16.952;2024-03-02T04:46:46;74525.19;;;-146.39;44.21
40460;BME280;26164;51.138;16.952;2024-03-02T04:49:12;74543.53;;;-146.39;45.00
40460;BME280;26164;51.138;16.952;2024-03-02T04:51:39;74543.53;;;-146.39;44.89
40460;BME280;26164;51.138;16.952;2024-03-02T04:54:05;74647.59;;;-146.39;45.89
40460;BME280;26164;51.138;16.952;2024-03-02T04:56:31;74653.72;;;-146.39;46.76
40460;BME280;26164;51.138;16.952;2024-03-02T04:58:59;74619.03;;;-146.39;46.25
40460;BME280;26164;51.138;16.952;2024-03-02T05:01:24;74588.44;;;-146.39;46.00
40460;BME280;26164;51.138;16.952;2024-03-02T05:03:51;74580.28;;;-146.39;45.12
40460;BME280;26164;51.138;16.952;2024-03-02T05:06:16;74606.81;;;-146.39;46.01
40460;BME280;26164;51.138;16.952;2024-03-02T05:08:44;74604.75;;;-146.39;46.23
40460;BME280;26164;51.138;16.952;2024-03-02T05:11:10;74488.44;;;-146.39;44.10
40460;BME280;26164;51.138;16.952;2024-03-02T05:14:05;74419.06;;;-146.39;42.75
40460;BME280;26164;51.138;16.952;2024-03-02T05:16:35;74439.47;;;-146.39;42.70
40460;BME280;26164;51.138;16.952;2024-03-02T05:19:10;74410.91;;;-146.39;42.24
40460;BME280;26164;51.138;16.952;2024-03-02T05:21:36;74502.72;;;-146.39;43.18
40460;BME280;26164;51.138;16.952;2024-03-02T05:24:02;74417.03;;;-146.39;42.06
40460;BME280;26164;51.138;16.952;2024-03-02T05:26:29;74384.38;;;-146.39;41.42
40460;BME280;26164;51.138;16.952;2024-03-02T05:28:55;74437.44;;;-146.39;41.79
40460;BME280;26164;51.138;16.952;2024-03-02T05:31:21;74484.38;;;-146.39;42.14
40460;BME280;26164;51.138;16.952;2024-03-02T05:33:47;74490.50;;;-146.39;42.07
40460;BME280;26164;51.138;16.952;2024-03-02T05:36:13;74592.50;;;-146.39;43.34
40460;BME280;26164;51.138;16.952;2024-03-02T05:38:39;74486.41;;;-146.39;42.78
40460;BME280;26164;51.138;16.952;2024-03-02T05:41:05;74496.63;;;-146.39;42.46
40460;BME280;26164;51.138;16.952;2024-03-02T05:43:31;74494.56;;;-146.39;42.54
40460;BME280;26164;51.138;16.952;2024-03-02T05:45:57;74502.72;;;-146.39;42.55
40460;BME280;26164;51.138;16.952;2024-03-02T05:48:23;74494.56;;;-146.39;42.44
40460;BME280;26164;51.138;16.952;2024-03-02T05:50:48;74547.63;;;-146.39;42.88
40460;BME280;26164;51.138;16.952;2024-03-02T05:53:15;74504.78;;;-146.39;42.15
40460;BME280;26164;51.138;16.952;2024-03-02T05:55:41;74559.88;;;-146.39;43.03
40460;BME280;26164;51.138;16.952;2024-03-02T05:58:07;74563.94;;;-146.39;42.78
40460;BME280;26164;51.138;16.952;2024-03-02T06:00:33;74645.56;;;-146.39;44.11
40460;BME280;26164;51.138;16.952;2024-03-02T06:02:59;74543.53;;;-146.39;42.59
40460;BME280;26164;51.138;16.952;2024-03-02T06:05:25;74572.09;;;-146.39;43.14
40460;BME280;26164;51.138;16.952;2024-03-02T06:07:51;74559.88;;;-146.39;42.80
40460;BME280;26164;51.138;16.952;2024-03-02T06:10:19;74510.91;;;-146.39;42.60
40460;BME280;26164;51.138;16.952;2024-03-02T06:12:45;74608.84;;;-146.39;43.58
40460;BME280;26164;51.138;16.952;2024-03-02T06:15:11;74519.06;;;-146.39;42.26
40460;BME280;26164;51.138;16.952;2024-03-02T06:17:38;74545.59;;;-146.39;42.83
40460;BME280;26164;51.138;16.952;2024-03-02T06:20:06;74519.06;;;-146.39;42.23
40460;BME280;26164;51.138;16.952;2024-03-02T06:22:36;74596.59;;;-146.39;43.21
40460;BME280;26164;51.138;16.952;2024-03-02T06:25:02;74451.72;;;-146.39;41.25
40460;BME280;26164;51.138;16.952;2024-03-02T06:27:28;74592.50;;;-146.39;42.55
40460;BME280;26164;51.138;16.952;2024-03-02T07:20:25;74478.25;;;-146.39;41.30
40460;BME280;26164;51.138;16.952;2024-03-02T07:23:14;74472.13;;;-146.39;40.72
40460;BME280;26164;51.138;16.952;2024-03-02T07:29:09;74494.56;;;-146.39;41.62
40460;BME280;26164;51.138;16.952;2024-03-02T07:32:41;74421.13;;;-146.39;40.16
40460;BME280;26164;51.138;16.952;2024-03-02T07:35:45;74347.66;;;-146.39;40.11
40460;BME280;26164;51.138;16.952;2024-03-02T07:42:18;74335.41;;;-146.39;39.36
40460;BME280;26164;51.138;16.952;2024-03-02T07:44:49;74345.63;;;-146.39;39.85
40460;BME280;26164;51.138;16.952;2024-03-02T07:47:19;74498.66;;;-146.39;40.42
40460;BME280;26164;51.138;16.952;2024-03-02T07:49:52;74333.38;;;-146.39;39.36
40460;BME280;26164;51.138;16.952;2024-03-02T07:52:21;74327.25;;;-146.39;38.98
40460;BME280;26164;51.138;16.952;2024-03-02T07:54:50;74363.97;;;-146.39;39.03
40460;BME280;26164;51.138;16.952;2024-03-02T07:57:35;74282.38;;;-146.39;38.71
40460;BME280;26164;51.138;16.952;2024-03-02T08:01:01;74270.13;;;-146.39;38.28
40460;BME280;26164;51.138;16.952;2024-03-02T08:03:31;74253.81;;;-146.39;38.11
40460;BME280;26164;51.138;16.952;2024-03-02T08:12:09;74213.00;;;-146.39;38.38
40460;BME280;26164;51.138;16.952;2024-03-02T08:14:35;74178.31;;;-146.39;38.14
40460;BME280;26164;51.138;16.952;2024-03-02T08:17:00;74251.78;;;-146.39;37.62
40460;BME280;26164;51.138;16.952;2024-03-02T08:19:27;74086.50;;;-146.39;36.24
40460;BME280;26164;51.138;16.952;2024-03-02T08:21:53;74078.34;;;-146.39;36.02
40460;BME280;26164;51.138;16.952;2024-03-02T08:24:19;74151.78;;;-146.39;36.66
40460;BME280;26164;51.138;16.952;2024-03-02T08:26:44;74172.19;;;-146.39;36.31
40460;BME280;26164;51.138;16.952;2024-03-02T08:29:10;74062.03;;;-146.39;35.90
40460;BME280;26164;51.138;16.952;2024-03-02T08:38:27;74349.69;;;-146.39;38.40
40460;BME280;26164;51.138;16.952;2024-03-02T08:43:45;74176.28;;;-146.39;36.55
40460;BME280;26164;51.138;16.952;2024-03-02T08:49:32;74111.00;;;-146.39;36.57
40460;BME280;26164;51.138;16.952;2024-03-02T08:51:59;74125.28;;;-146.39;36.65
40460;BME280;26164;51.138;16.952;2024-03-02T08:54:24;74004.91;;;-146.39;35.29
40460;BME280;26164;51.138;16.952;2024-03-02T08:56:50;74082.44;;;-146.39;36.29
40460;BME280;26164;51.138;16.952;2024-03-02T08:59:18;74162.00;;;-146.39;36.74
40460;BME280;26164;51.138;16.952;2024-03-02T09:01:44;74082.44;;;-146.39;35.96
40460;BME280;26164;51.138;16.952;2024-03-02T09:04:11;74025.28;;;-146.39;35.77
40460;BME280;26164;51.138;16.952;2024-03-02T09:06:37;74008.97;;;-146.39;35.30
40460;BME280;26164;51.138;16.952;2024-03-02T09:09:03;74070.19;;;-146.39;35.45
40460;BME280;26164;51.138;16.952;2024-03-02T09:11:30;74074.25;;;-146.39;35.60
40460;BME280;26164;51.138;16.952;2024-03-02T09:13:55;73992.66;;;-146.39;34.90
40460;BME280;26164;51.138;16.952;2024-03-02T09:16:23;73976.34;;;-146.39;35.08
40460;BME280;26164;51.138;16.952;2024-03-02T09:18:50;74041.63;;;-146.39;35.30
40460;BME280;26164;51.138;16.952;2024-03-02T09:21:16;74145.66;;;-146.39;35.95
40460;BME280;26164;51.138;16.952;2024-03-02T09:23:42;74186.47;;;-146.39;37.11
40460;BME280;26164;51.138;16.952;2024-03-02T09:26:09;74029.38;;;-146.39;35.54
40460;BME280;26164;51.138;16.952;2024-03-02T09:28:35;74025.28;;;-146.39;35.49
40460;BME280;26164;51.138;16.952;2024-03-02T09:31:01;74013.06;;;-146.39;35.27
40460;BME280;26164;51.138;16.952;2024-03-02T09:33:26;73974.28;;;-146.39;35.10
40460;BME280;26164;51.138;16.952;2024-03-02T09:35:52;73955.94;;;-146.39;34.75
40460;BME280;26164;51.138;16.952;2024-03-02T09:38:18;73947.78;;;-146.39;34.42
40460;BME280;26164;51.138;16.952;2024-03-02T09:40:44;73964.09;;;-146.39;34.67
40460;BME280;26164;51.138;16.952;2024-03-02T10:14:21;74133.44;;;-146.39;36.36
40460;BME280;26164;51.138;16.952;2024-03-02T10:20:25;74053.88;;;-146.39;35.72
40460;BME280;26164;51.138;16.952;2024-03-02T10:22:51;74029.38;;;-146.39;35.44
40460;BME280;26164;51.138;16.952;2024-03-02T10:25:32;74064.06;;;-146.39;35.66
40460;BME280;26164;51.138;16.952;2024-03-02T10:28:01;74029.38;;;-146.39;35.36
40460;BME280;26164;51.138;16.952;2024-03-02T10:30:34;74098.75;;;-146.39;36.22
40460;BME280;26164;51.138;16.952;2024-03-02T10:37:03;74053.88;;;-146.39;35.68
40460;BME280;26164;51.138;16.952;2024-03-02T10:40:46;74053.88;;;-146.39;35.88
40460;BME280;26164;51.138;16.952;2024-03-02T10:43:28;74084.47;;;-146.39;35.97
40460;BME280;26164;51.138;16.952;2024-03-02T10:46:30;74108.94;;;-146.39;36.22
40460;BME280;26164;51.138;16.952;2024-03-02T10:49:09;74029.38;;;-146.39;35.73
40460;BME280;26164;51.138;16.952;2024-03-02T10:51:37;73892.69;;;-146.39;34.42
40460;BME280;26164;51.138;16.952;2024-03-02T10:54:06;73921.25;;;-146.39;34.47
40460;BME280;26164;51.138;16.952;2024-03-02T10:56:34;73931.44;;;-146.39;34.93
40460;BME280;26164;51.138;16.952;2024-03-02T10:59:35;74017.13;;;-146.39;35.47
40460;BME280;26164;51.138;16.952;2024-03-02T11:02:21;74057.94;;;-146.39;35.66
40460;BME280;26164;51.138;16.952;2024-03-02T11:04:53;73931.44;;;-146.39;34.82
40460;BME280;26164;51.138;16.952;2024-03-02T11:07:21;73880.44;;;-146.39;34.18
40460;BME280;26164;51.138;16.952;2024-03-02T11:10:08;73764.16;;;-146.39;33.46
40460;BME280;26164;51.138;16.952;2024-03-02T11:12:52;73768.25;;;-146.39;33.23
40460;BME280;26164;51.138;16.952;2024-03-02T11:15:25;73811.09;;;-146.39;33.53
40460;BME280;26164;51.138;16.952;2024-03-02T11:17:56;73947.78;;;-146.39;34.14
40460;BME280;26164;51.138;16.952;2024-03-02T11:20:25;73947.78;;;-146.39;34.27
40460;BME280;26164;51.138;16.952;2024-03-02T11:22:53;73860.03;;;-146.39;33.70
40460;BME280;26164;51.138;16.952;2024-03-02T11:25:28;73988.56;;;-146.39;34.53
40460;BME280;26164;51.138;16.952;2024-03-02T11:28:00;73768.25;;;-146.39;32.95
40460;BME280;26164;51.138;16.952;2024-03-02T11:33:00;73796.81;;;-146.39;33.16
40460;BME280;26164;51.138;16.952;2024-03-02T11:35:48;73847.81;;;-146.39;33.53
40460;BME280;26164;51.138;16.952;2024-03-02T11:38:15;73780.47;;;-146.39;32.59
40460;BME280;26164;51.138;16.952;2024-03-02T11:40:44;73702.97;;;-146.39;32.02
40460;BME280;26164;51.138;16.952;2024-03-02T11:43:10;73690.72;;;-146.39;32.10
40460;BME280;26164;51.138;16.952;2024-03-02T11:46:03;73729.47;;;-146.39;32.48
40460;BME280;26164;51.138;16.952;2024-03-02T11:48:55;73813.13;;;-146.39;33.01
40460;BME280;26164;51.138;16.952;2024-03-02T11:52:03;73921.25;;;-146.39;33.76
40460;BME280;26164;51.138;16.952;2024-03-02T11:54:32;73858.00;;;-146.39;33.58
40460;BME280;26164;51.138;16.952;2024-03-02T11:57:08;73858.00;;;-146.39;33.70
40460;BME280;26164;51.138;16.952;2024-03-02T11:59:49;73888.59;;;-146.39;33.93
40460;BME280;26164;51.138;16.952;2024-03-02T12:02:39;73735.59;;;-146.39;32.62
40460;BME280;26164;51.138;16.952;2024-03-02T12:12:12;73894.72;;;-146.39;33.10
40460;BME280;26164;51.138;16.952;2024-03-02T12:15:08;74055.91;;;-146.39;34.28
40460;BME280;26164;51.138;16.952;2024-03-02T12:35:57;73925.34;;;-146.39;33.35
40460;BME280;26164;51.138;16.952;2024-03-02T12:40:21;73788.63;;;-146.39;32.43
40460;BME280;26164;51.138;16.952;2024-03-02T13:10:14;73833.53;;;-146.39;32.68
40460;BME280;26164;51.138;16.952;2024-03-02T13:19:27;73866.16;;;-146.39;33.29
40460;BME280;26164;51.138;16.952;2024-03-02T13:22:20;73853.94;;;-146.39;33.49
40460;BME280;26164;51.138;16.952;2024-03-02T13:25:00;73915.13;;;-146.39;33.91
40460;BME280;26164;51.138;16.952;2024-03-02T13:27:37;73870.25;;;-146.39;33.53
40460;BME280;26164;51.138;16.952;2024-03-02T13:33:24;73864.13;;;-146.39;33.56
40460;BME280;26164;51.138;16.952;2024-03-02T13:36:29;73870.25;;;-146.39;33.69
40460;BME280;26164;51.138;16.952;2024-03-02T13:39:25;73862.09;;;-146.39;33.09
40460;BME280;26164;51.138;16.952;2024-03-02T13:42:18;73839.66;;;-146.39;33.12
40460;BME280;26164;51.138;16.952;2024-03-02T13:45:00;73829.44;;;-146.39;33.16
40460;BME280;26164;51.138;16.952;2024-03-02T13:47:27;73800.88;;;-146.39;32.96
40460;BME280;26164;51.138;16.952;2024-03-02T13:50:19;73870.25;;;-146.39;33.28
40460;BME280;26164;51.138;16.952;2024-03-02T13:52:46;73853.94;;;-146.39;33.37
40460;BME280;26164;51.138;16.952;2024-03-02T13:55:21;73947.78;;;-146.39;34.27
40460;BME280;26164;51.138;16.952;2024-03-02T13:57:49;73947.78;;;-146.39;34.25
40460;BME280;26164;51.138;16.952;2024-03-02T14:00:19;73870.25;;;-146.39;33.50
40460;BME280;26164;51.138;16.952;2024-03-02T14:03:09;73982.44;;;-146.39;34.39
40460;BME280;26164;51.138;16.952;2024-03-02T14:05:37;73894.72;;;-146.39;33.62
40460;BME280;26164;51.138;16.952;2024-03-02T14:08:04;73992.66;;;-146.39;34.64
40460;BME280;26164;51.138;16.952;2024-03-02T14:10:30;73960.00;;;-146.39;34.56
40460;BME280;26164;51.138;16.952;2024-03-02T14:13:08;73923.28;;;-146.39;34.24
40460;BME280;26164;51.138;16.952;2024-03-02T14:16:00;73911.03;;;-146.39;34.05
40460;BME280;26164;51.138;16.952;2024-03-02T14:18:46;73886.56;;;-146.39;33.93
40460;BME280;26164;51.138;16.952;2024-03-02T14:21:39;74008.97;;;-146.39;34.99
40460;BME280;26164;51.138;16.952;2024-03-02T14:24:10;73992.66;;;-146.39;34.78
40460;BME280;26164;51.138;16.952;2024-03-02T14:27:06;73976.34;;;-146.39;34.92
40460;BME280;26164;51.138;16.952;2024-03-02T14:29:51;74029.38;;;-146.39;35.65
40460;BME280;26164;51.138;16.952;2024-03-02T14:32:58;73951.84;;;-146.39;34.23
40460;BME280;26164;51.138;16.952;2024-03-02T14:35:41;74004.91;;;-146.39;35.18
40460;BME280;26164;51.138;16.952;2024-03-02T14:38:27;74033.47;;;-146.39;35.43
40460;BME280;26164;51.138;16.952;2024-03-02T14:41:07;74021.22;;;-146.39;35.03
40460;BME280;26164;51.138;16.952;2024-03-02T14:43:36;73976.34;;;-146.39;34.68
40460;BME280;26164;51.138;16.952;2024-03-02T14:46:19;73974.28;;;-146.39;34.84
40460;BME280;26164;51.138;16.952;2024-03-02T14:48:49;73976.34;;;-146.39;34.56
40460;BME280;26164;51.138;16.952;2024-03-02T14:51:20;73935.53;;;-146.39;34.59
40460;BME280;26164;51.138;16.952;2024-03-02T14:54:11;73980.41;;;-146.39;34.24
40460;BME280;26164;51.138;16.952;2024-03-02T14:57:01;74094.66;;;-146.39;35.27
40460;BME280;26164;51.138;16.952;2024-03-02T14:59:44;74025.28;;;-146.39;35.12
40460;BME280;26164;51.138;16.952;2024-03-02T15:02:11;73972.25;;;-146.39;34.81
40460;BME280;26164;51.138;16.952;2024-03-02T15:04:40;74021.22;;;-146.39;35.34
40460;BME280;26164;51.138;16.952;2024-03-02T15:07:21;73915.13;;;-146.39;34.34
40460;BME280;26164;51.138;16.952;2024-03-02T15:09:51;73898.81;;;-146.39;34.07
40460;BME280;26164;51.138;16.952;2024-03-02T15:12:32;74008.97;;;-146.39;35.25
40460;BME280;26164;51.138;16.952;2024-03-02T15:15:39;73866.16;;;-146.39;34.50
40460;BME280;26164;51.138;16.952;2024-03-02T15:18:21;73931.44;;;-146.39;34.98
40460;BME280;26164;51.138;16.952;2024-03-02T15:21:19;73972.25;;;-146.39;35.36
40460;BME280;26164;51.138;16.952;2024-03-02T15:24:15;74086.50;;;-146.39;36.50
40460;BME280;26164;51.138;16.952;2024-03-02T15:27:25;74004.91;;;-146.39;35.86
40460;BME280;26164;51.138;16.952;2024-03-02T15:30:27;73996.75;;;-146.39;35.66
40460;BME280;26164;51.138;16.952;2024-03-02T15:33:14;74062.03;;;-146.39;36.47
40460;BME280;26164;51.138;16.952;2024-03-02T15:36:09;73909.00;;;-146.39;35.01
40460;BME280;26164;51.138;16.952;2024-03-02T15:38:50;73980.41;;;-146.39;35.64
40460;BME280;26164;51.138;16.952;2024-03-02T15:41:32;74102.81;;;-146.39;36.45
40460;BME280;26164;51.138;16.952;2024-03-02T15:44:11;74049.78;;;-146.39;35.74
40460;BME280;26164;51.138;16.952;2024-03-02T15:56:58;74102.81;;;-146.39;36.54
40460;BME280;26164;51.138;16.952;2024-03-02T16:05:17;73949.81;;;-146.39;35.16
40460;BME280;26164;51.138;16.952;2024-03-02T16:08:02;73925.34;;;-146.39;34.79
40460;BME280;26164;51.138;16.952;2024-03-02T16:11:22;73933.50;;;-146.39;35.25
40460;BME280;26164;51.138;16.952;2024-03-02T16:14:10;73955.94;;;-146.39;35.16
40460;BME280;26164;51.138;16.952;2024-03-02T16:17:21;74000.81;;;-146.39;35.42
40460;BME280;26164;51.138;16.952;2024-03-02T16:20:08;73978.38;;;-146.39;35.70
40460;BME280;26164;51.138;16.952;2024-03-02T16:23:21;73980.41;;;-146.39;35.32
40460;BME280;26164;51.138;16.952;2024-03-02T16:29:01;74133.44;;;-146.39;36.59
40460;BME280;26164;51.138;16.952;2024-03-02T16:35:17;74039.59;;;-146.39;36.12
40460;BME280;26164;51.138;16.952;2024-03-02T16:38:29;74041.63;;;-146.39;36.30
40460;BME280;26164;51.138;16.952;2024-03-02T16:41:01;74096.72;;;-146.39;36.45
40460;BME280;26164;51.138;16.952;2024-03-02T16:43:30;74119.16;;;-146.39;36.73
40460;BME280;26164;51.138;16.952;2024-03-02T16:46:06;74111.00;;;-146.39;36.76
40460;BME280;26164;51.138;16.952;2024-03-02T16:48:46;74025.28;;;-146.39;36.01
40460;BME280;26164;51.138;16.952;2024-03-02T16:51:41;74037.53;;;-146.39;35.62
40460;BME280;26164;51.138;16.952;2024-03-02T17:00:00;74208.91;;;-146.39;37.26
40460;BME280;26164;51.138;16.952;2024-03-02T17:02:28;74359.91;;;-146.39;38.92